Time;durP1;ratioP1;P1;durP2;ratioP2;P2;SDS_P1;SDS_P2;PMS_P1;PMS_P2;Temp;Humidity;BMP_temperature;BMP_pressure;BME280_temperature;BME280_humidity;BME280_pressure;Samples;Min_cycle;Max_cycle;Signal;HPM_P1;HPM_P2
2022/02/09 00:02:06;;;;;;;10.93;4.25;;;;;;;7.30;63.70;100387.22;4911198;29;20078;-71
2022/02/09 00:04:40;;;;;;;7.63;3.80;;;;;;;7.31;63.84;100399.44;4946879;28;20047;-70
2022/02/09 00:07:11;;;;;;;14.98;5.18;;;;;;;7.24;64.14;100403.34;4952260;28;20122;-74
2022/02/09 00:09:42;;;;;;;10.25;4.95;;;;;;;7.19;64.38;100415.88;4930412;28;20053;-71
2022/02/09 00:12:17;;;;;;;9.32;4.38;;;;;;;7.21;64.33;100414.00;4946508;29;20054;-73
2022/02/09 00:14:56;;;;;;;13.55;5.53;;;;;;;7.15;64.74;100415.22;5004246;28;20034;-73
2022/02/09 00:17:43;;;;;;;11.15;6.18;;;;;;;7.14;64.88;100425.78;5024289;28;20064;-70
2022/02/09 00:42:25;;;;;;;11.85;5.65;;;;;;;6.99;65.86;100478.22;4904058;29;20075;-72
2022/02/09 00:59:20;;;;;;;13.85;6.03;;;;;;;6.88;66.20;100493.72;4840670;29;20109;-71
2022/02/09 01:57:10;;;;;;;10.93;5.32;;;;;;;6.66;67.99;100515.84;4962699;28;20149;-71
2022/02/09 01:59:37;;;;;;;13.80;6.18;;;;;;;6.82;67.71;100513.25;4969247;28;20045;-72
2022/02/09 02:02:05;;;;;;;12.07;4.75;;;;;;;6.94;67.48;100511.75;4969571;28;20647;-70
2022/02/09 02:04:32;;;;;;;14.77;5.22;;;;;;;6.95;67.53;100518.72;4979536;28;20110;-71
2022/02/09 02:07:02;;;;;;;13.85;7.40;;;;;;;6.95;67.63;100513.47;4975672;28;20149;-70
2022/02/09 02:09:34;;;;;;;12.85;5.80;;;;;;;7.01;67.80;100507.88;4969752;28;20035;-70
2022/02/09 02:12:09;;;;;;;11.00;6.10;;;;;;;7.06;67.65;100510.28;4968336;28;20057;-70
2022/02/09 02:14:41;;;;;;;12.13;5.63;;;;;;;7.12;67.44;100506.47;4966788;28;20060;-73
2022/02/09 02:17:14;;;;;;;9.77;5.55;;;;;;;7.15;67.92;100512.41;5016508;28;20046;-71
2022/02/09 02:19:45;;;;;;;9.80;6.00;;;;;;;7.22;67.21;100526.03;5029660;28;20060;-71
2022/02/09 02:22:31;;;;;;;16.20;7.18;;;;;;;7.25;67.30;100521.44;5029648;28;20406;-70
2022/02/09 02:25:32;;;;;;;11.88;6.28;;;;;;;7.31;67.28;100522.06;5027434;28;20051;-72
2022/02/09 02:28:17;;;;;;;17.13;7.15;;;;;;;7.31;67.13;100522.06;5027679;28;20571;-70
2022/02/09 02:37:00;;;;;;;14.98;8.73;;;;;;;7.46;67.07;100506.28;4966890;28;20046;-71
2022/02/09 03:10:16;;;;;;;14.85;8.85;;;;;;;7.79;66.57;100529.00;4938191;28;20058;-70
2022/02/09 03:12:54;;;;;;;13.38;7.50;;;;;;;7.85;66.44;100536.56;4935955;29;20484;-69
2022/02/09 03:15:33;;;;;;;12.73;8.63;;;;;;;7.77;66.75;100537.91;4937071;28;20515;-71
2022/02/09 03:18:21;;;;;;;13.77;9.07;;;;;;;7.80;66.68;100528.06;4953867;28;20054;-70
2022/02/09 03:20:53;;;;;;;12.70;8.57;;;;;;;7.80;66.60;100533.34;4952918;28;20065;-69
2022/02/09 03:23:40;;;;;;;13.95;8.82;;;;;;;7.78;66.58;100535.22;4955231;28;20046;-69
2022/02/09 03:26:29;;;;;;;18.27;10.48;;;;;;;7.75;66.48;100540.63;4955897;28;20062;-70
2022/02/09 03:42:49;;;;;;;19.02;9.98;;;;;;;7.60;66.52;100568.63;4991757;28;20651;-71
2022/02/09 03:48:24;;;;;;;12.38;5.70;;;;;;;7.67;66.18;100579.66;5021412;28;20179;-71
2022/02/09 03:51:11;;;;;;;14.73;6.65;;;;;;;7.73;65.96;100568.78;5024901;28;20077;-71
2022/02/09 03:56:54;;;;;;;15.40;7.95;;;;;;;7.70;65.64;100573.38;4964428;28;20046;-71
2022/02/09 03:59:21;;;;;;;11.75;7.13;;;;;;;7.68;65.76;100570.00;4962612;28;20074;-70
2022/02/09 04:01:50;;;;;;;12.00;6.07;;;;;;;7.62;65.80;100566.75;4965498;28;20526;-70
2022/02/09 04:04:17;;;;;;;13.65;6.38;;;;;;;7.62;65.72;100572.00;4965616;28;20182;-70
2022/02/09 04:06:48;;;;;;;17.40;6.95;;;;;;;7.66;65.50;100570.06;4964359;28;20046;-70
2022/02/09 04:09:17;;;;;;;15.20;6.22;;;;;;;7.74;65.33;100570.50;4965448;28;20070;-71
2022/02/09 04:11:48;;;;;;;7.88;4.80;;;;;;;7.78;65.08;100572.03;4962097;28;20126;-69
2022/02/09 04:14:23;;;;;;;16.95;7.05;;;;;;;7.71;65.13;100578.56;4962684;28;20050;-70
2022/02/09 04:17:01;;;;;;;18.08;7.25;;;;;;;7.69;65.03;100569.91;4958291;28;20057;-70
2022/02/09 04:19:37;;;;;;;14.93;5.55;;;;;;;7.69;64.99;100585.69;4961855;28;20659;-69
2022/02/09 04:22:49;;;;;;;13.77;6.72;;;;;;;7.63;65.05;100586.00;4959264;28;20488;-70
2022/02/09 04:36:20;;;;;;;34.03;13.25;;;;;;;7.65;65.60;100585.00;4955414;28;20054;-70
2022/02/09 04:38:54;;;;;;;37.80;16.00;;;;;;;7.71;65.46;100588.22;4958306;28;20139;-69
2022/02/09 04:41:48;;;;;;;21.13;13.27;;;;;;;7.66;65.64;100577.94;4895971;28;20047;-69
2022/02/09 04:44:32;;;;;;;12.00;5.90;;;;;;;7.69;65.58;100577.78;4954487;28;20075;-69
2022/02/09 04:52:27;;;;;;;14.48;7.03;;;;;;;7.70;65.45;100565.50;4955531;28;20089;-71
2022/02/09 04:55:00;;;;;;;12.63;7.63;;;;;;;7.71;65.28;100575.09;4954210;28;20106;-72
2022/02/09 04:57:36;;;;;;;12.73;5.93;;;;;;;7.70;65.30;100582.09;4954687;28;20046;-70
2022/02/09 05:25:13;;;;;;;9.70;5.70;;;;;;;7.07;65.85;100594.22;4859081;29;20076;-71
2022/02/09 05:27:51;;;;;;;12.35;4.65;;;;;;;7.14;65.47;100601.78;4858949;29;20587;-70
2022/02/09 05:30:18;;;;;;;14.43;6.03;;;;;;;7.00;65.72;100599.88;4858523;29;20554;-71
2022/02/09 05:32:47;;;;;;;19.05;6.32;;;;;;;6.95;65.88;100592.25;4862713;29;20079;-71
2022/02/09 05:35:14;;;;;;;14.48;6.68;;;;;;;6.91;65.95;100601.19;4863091;29;20056;-71
2022/02/09 05:37:43;;;;;;;14.30;6.32;;;;;;;6.90;65.83;100610.00;4861702;29;20055;-72
2022/02/09 05:40:11;;;;;;;12.25;6.35;;;;;;;6.87;65.77;100602.28;4902140;29;20060;-71
2022/02/09 05:42:38;;;;;;;12.80;8.90;;;;;;;6.84;65.65;100605.06;4912857;29;20230;-72
2022/02/09 05:45:08;;;;;;;16.13;7.45;;;;;;;6.74;65.82;100602.06;4911830;29;20643;-70
2022/02/09 05:50:31;;;;;;;10.82;7.13;;;;;;;6.71;65.85;100610.09;4909855;29;20578;-69
2022/02/09 05:53:10;;;;;;;9.93;5.47;;;;;;;6.69;65.89;100618.03;4910710;29;20111;-70
2022/02/09 05:55:49;;;;;;;16.77;8.43;;;;;;;6.65;65.98;100618.28;4906552;29;20051;-74
2022/02/09 05:58:34;;;;;;;14.95;6.72;;;;;;;6.63;66.12;100614.91;4911303;29;20044;-70
2022/02/09 06:01:02;;;;;;;14.37;6.83;;;;;;;6.62;66.02;100616.66;4960033;28;20109;-73
2022/02/09 06:03:30;;;;;;;12.50;4.90;;;;;;;6.62;66.18;100614.03;5024365;28;20322;-75
2022/02/09 06:05:57;;;;;;;14.13;7.47;;;;;;;6.60;66.12;100622.91;5023183;28;20065;-73
2022/02/09 06:08:25;;;;;;;18.40;10.48;;;;;;;6.54;66.87;100623.22;5022792;28;20127;-72
2022/02/09 06:11:07;;;;;;;13.80;6.63;;;;;;;6.64;66.70;100617.41;5015021;28;20128;-72
2022/02/09 06:13:56;;;;;;;16.20;9.00;;;;;;;6.61;67.05;100620.22;5021343;28;20641;-72
2022/02/09 06:21:52;;;;;;;15.98;8.27;;;;;;;6.84;67.04;100616.44;5020013;28;20118;-71
2022/02/09 06:24:20;;;;;;;12.00;6.32;;;;;;;6.92;66.87;100609.94;5023134;28;20140;-73
2022/02/09 06:26:48;;;;;;;15.88;10.25;;;;;;;6.87;67.16;100618.88;5022108;28;20041;-71
2022/02/09 06:29:15;;;;;;;19.27;10.98;;;;;;;6.88;67.69;100619.75;5022796;28;20045;-70
2022/02/09 06:31:44;;;;;;;16.65;7.50;;;;;;;6.93;67.53;100622.97;5022984;28;20041;-71
2022/02/09 06:34:14;;;;;;;17.23;9.18;;;;;;;6.95;67.60;100618.50;5018486;28;20059;-73
2022/02/09 06:36:45;;;;;;;17.08;8.57;;;;;;;6.92;67.63;100620.44;5021300;28;20045;-70
2022/02/09 06:39:14;;;;;;;14.18;7.93;;;;;;;7.00;67.29;100621.72;5021287;28;20057;-70
2022/02/09 06:41:43;;;;;;;13.15;8.15;;;;;;;7.04;67.17;100620.66;5020261;28;20129;-70
2022/02/09 06:44:11;;;;;;;13.77;8.70;;;;;;;7.01;67.39;100612.94;5020654;28;20052;-70
2022/02/09 06:46:39;;;;;;;15.43;7.25;;;;;;;7.09;67.06;100630.91;5023281;28;20084;-72
2022/02/09 06:49:08;;;;;;;21.20;9.30;;;;;;;7.07;67.39;100628.34;5023341;28;20119;-70
2022/02/09 06:51:37;;;;;;;15.77;7.70;;;;;;;7.20;67.13;100632.97;5022861;28;20063;-72
2022/02/09 06:54:12;;;;;;;14.38;8.63;;;;;;;7.32;67.07;100624.44;5022366;28;20042;-72
2022/02/09 06:56:58;;;;;;;14.32;7.70;;;;;;;7.52;66.50;100626.00;5022177;28;20056;-70
2022/02/09 06:59:30;;;;;;;17.05;10.23;;;;;;;7.58;66.51;100630.09;5017028;28;20042;-71
2022/02/09 07:01:59;;;;;;;15.43;8.20;;;;;;;7.65;66.26;100636.72;5016087;28;20060;-73
2022/02/09 07:04:26;;;;;;;16.98;8.55;;;;;;;7.60;66.28;100628.25;5018362;28;20085;-71
2022/02/09 07:06:55;;;;;;;13.82;8.25;;;;;;;7.73;66.19;100631.06;5021657;28;20635;-71
2022/02/09 07:09:23;;;;;;;12.82;8.20;;;;;;;7.81;66.02;100629.72;5021788;28;20132;-70
2022/02/09 07:11:50;;;;;;;14.77;8.10;;;;;;;7.99;65.71;100629.59;5022919;28;20125;-70
2022/02/09 07:14:21;;;;;;;16.33;8.30;;;;;;;8.19;65.29;100634.63;5020960;28;20048;-68
2022/02/09 07:16:50;;;;;;;13.25;8.60;;;;;;;8.23;64.87;100622.97;5022813;28;20429;-72
2022/02/09 07:19:17;;;;;;;20.48;8.98;;;;;;;8.44;64.53;100633.22;5018684;28;20146;-72
2022/02/09 07:21:44;;;;;;;17.58;10.30;;;;;;;8.56;64.05;100632.53;5021749;28;20654;-72
2022/02/09 07:24:14;;;;;;;16.00;7.82;;;;;;;8.76;63.80;100623.44;5022164;28;20470;-74
2022/02/09 07:26:48;;;;;;;15.65;9.02;;;;;;;8.90;63.38;100622.66;5020645;28;20056;-72
2022/02/09 07:29:17;;;;;;;18.48;8.40;;;;;;;9.07;62.95;100618.16;5020344;28;20132;-71
2022/02/09 07:31:45;;;;;;;17.48;9.98;;;;;;;9.26;62.97;100625.81;5020958;28;20675;-72
2022/02/09 07:34:15;;;;;;;15.40;7.75;;;;;;;9.44;62.71;100629.94;5020904;28;20048;-73
2022/02/09 07:36:46;;;;;;;17.17;9.13;;;;;;;9.39;62.00;100626.72;5020254;28;20649;-74
2022/02/09 07:39:13;;;;;;;14.88;8.25;;;;;;;9.51;62.14;100617.22;5021184;28;20050;-72
2022/02/09 07:41:43;;;;;;;15.93;9.07;;;;;;;9.68;61.69;100630.19;5019849;28;20121;-72
2022/02/09 07:44:34;;;;;;;13.63;6.60;;;;;;;9.76;61.66;100625.28;5017920;28;20117;-72
2022/02/09 07:47:21;;;;;;;13.27;8.00;;;;;;;9.84;61.20;100634.50;5020703;28;20045;-71
2022/02/09 07:50:04;;;;;;;14.77;7.85;;;;;;;9.93;61.34;100631.28;5019560;28;20103;-70
2022/02/09 07:52:39;;;;;;;14.57;7.40;;;;;;;10.08;61.11;100640.00;5018306;28;20042;-71
2022/02/09 07:55:06;;;;;;;15.02;8.25;;;;;;;10.07;61.06;100641.81;5018472;28;20065;-70
2022/02/09 07:57:33;;;;;;;13.48;7.82;;;;;;;10.08;61.17;100645.28;5019467;28;20061;-72
2022/02/09 08:00:01;;;;;;;18.42;10.75;;;;;;;10.08;61.01;100640.88;5018286;28;20152;-75
2022/02/09 08:02:29;;;;;;;22.20;10.38;;;;;;;10.07;61.02;100640.97;5019412;28;20077;-73
2022/02/09 08:04:57;;;;;;;17.50;11.43;;;;;;;10.07;60.91;100652.34;5019181;28;20117;-72
2022/02/09 08:07:24;;;;;;;16.17;9.43;;;;;;;10.09;61.03;100636.44;5021347;28;20132;-72
2022/02/09 08:09:51;;;;;;;23.95;10.60;;;;;;;10.18;60.95;100629.72;5020734;28;20068;-72
2022/02/09 08:20:51;;;;;;;21.67;14.02;;;;;;;10.50;60.42;100644.31;5018560;28;20051;-72
2022/02/09 08:29:18;;;;;;;35.85;15.18;;;;;;;10.79;60.24;100623.03;4957474;27;5759347;-73
2022/02/09 08:32:24;;;;;;;27.30;12.57;;;;;;;10.88;60.14;100627.69;5160448;27;20054;-73
2022/02/09 08:34:34;;;;;;;31.63;17.27;;;;;;;11.01;59.85;100617.13;5159955;27;20121;-75
2022/02/09 08:37:01;;;;;;;25.55;14.05;;;;;;;11.05;59.71;100617.78;5157914;27;20046;-77
2022/02/09 08:39:29;;;;;;;19.23;11.07;;;;;;;11.04;59.68;100614.28;5159387;27;20077;-70
2022/02/09 08:41:56;;;;;;;18.02;9.85;;;;;;;11.13;59.66;100612.81;5160173;27;20073;-76
2022/02/09 08:44:25;;;;;;;18.83;9.95;;;;;;;11.22;59.54;100612.16;5152833;27;20060;-75
2022/02/09 08:46:52;;;;;;;14.30;9.13;;;;;;;11.33;59.31;100602.66;5166764;27;20050;-74
2022/02/09 08:49:19;;;;;;;14.38;6.82;;;;;;;11.40;59.04;100610.03;5160580;27;20049;-75
2022/02/09 08:51:46;;;;;;;17.20;9.55;;;;;;;11.53;58.89;100604.72;5158037;27;20189;-73
2022/02/09 08:54:15;;;;;;;19.15;12.43;;;;;;;11.66;58.47;100605.53;5160377;27;20116;-73
2022/02/09 08:56:43;;;;;;;17.58;7.88;;;;;;;11.70;58.54;100605.31;5157187;27;20067;-76
2022/02/09 08:59:10;;;;;;;16.73;8.18;;;;;;;11.65;58.26;100595.09;5143373;27;20085;-74
2022/02/09 09:01:42;;;;;;;16.75;8.52;;;;;;;11.73;58.15;100600.66;5147455;27;20047;-72
2022/02/09 09:04:21;;;;;;;9.02;5.63;;;;;;;11.66;57.85;100605.53;5138804;27;20049;-72
2022/02/09 09:06:54;;;;;;;12.27;6.82;;;;;;;11.57;57.65;100600.91;5115916;27;20042;-72
2022/02/09 09:09:30;;;;;;;13.30;9.05;;;;;;;11.48;57.15;100602.41;5162814;27;20062;-74
2022/02/09 09:14:59;;;;;;;13.95;8.95;;;;;;;11.43;57.01;100595.75;5152622;27;20062;-79
2022/02/09 09:59:08;;;;;;;13.70;7.97;;;;;;;11.48;57.44;100586.53;5033891;28;20567;-74
2022/02/09 10:01:51;;;;;;;13.75;7.88;;;;;;;11.57;57.31;100576.25;5020918;28;20135;-73
2022/02/09 10:04:38;;;;;;;14.93;9.43;;;;;;;11.70;57.23;100581.50;5030579;28;20429;-78
2022/02/09 10:32:48;;;;;;;14.27;5.93;;;;;;;12.05;57.19;100581.63;5063465;28;20606;-75
2022/02/09 10:35:26;;;;;;;11.00;5.93;;;;;;;11.84;57.61;100578.72;5061877;28;20123;-73
2022/02/09 10:37:55;;;;;;;13.13;6.13;;;;;;;11.86;57.73;100579.44;5061835;28;20064;-72
2022/02/09 10:40:37;;;;;;;10.70;6.22;;;;;;;11.82;57.84;100568.22;5061988;28;20052;-71
2022/02/09 10:43:05;;;;;;;11.77;6.53;;;;;;;11.76;58.20;100575.78;5045241;28;20098;-71
2022/02/09 10:45:36;;;;;;;9.70;6.15;;;;;;;11.72;58.41;100576.94;5063196;28;20228;-77
2022/02/09 10:48:07;;;;;;;11.65;6.32;;;;;;;11.63;58.69;100579.31;5108255;27;20679;-75
2022/02/09 10:50:37;;;;;;;13.32;8.70;;;;;;;11.59;58.86;100569.88;5122893;27;20050;-75
2022/02/09 10:53:06;;;;;;;14.10;8.88;;;;;;;11.59;58.96;100563.75;5123664;27;20044;-70
2022/02/09 10:55:37;;;;;;;10.63;6.93;;;;;;;11.58;59.17;100568.22;5126121;27;20071;-72
2022/02/09 10:58:07;;;;;;;10.52;7.25;;;;;;;11.57;59.28;100565.66;5128403;27;20051;-72
2022/02/09 11:00:34;;;;;;;15.38;9.82;;;;;;;11.56;59.61;100561.31;5129748;27;20046;-77
2022/02/09 11:03:02;;;;;;;17.67;10.07;;;;;;;11.62;59.53;100558.25;5127589;27;20050;-73
2022/02/09 11:05:29;;;;;;;16.08;9.15;;;;;;;11.65;59.39;100555.41;5131464;27;20557;-72
2022/02/09 11:07:59;;;;;;;14.65;9.02;;;;;;;11.65;59.42;100561.53;5124888;27;20076;-75
2022/02/09 11:10:27;;;;;;;18.10;10.80;;;;;;;11.60;59.74;100561.00;5133141;27;20039;-74
2022/02/09 11:12:57;;;;;;;15.98;11.30;;;;;;;11.43;60.44;100558.72;5131208;27;20131;-74
2022/02/09 11:15:24;;;;;;;20.83;12.13;;;;;;;11.33;60.83;100555.91;5127568;27;20798;-73
2022/02/09 11:17:52;;;;;;;18.55;11.68;;;;;;;11.29;60.93;100555.25;5134823;27;20139;-75
2022/02/09 11:20:27;;;;;;;20.60;12.77;;;;;;;11.29;60.79;100560.56;5133705;27;20114;-72
2022/02/09 11:22:54;;;;;;;20.33;11.95;;;;;;;11.35;60.71;100553.16;5131835;27;20130;-75
2022/02/09 11:25:28;;;;;;;17.98;11.57;;;;;;;11.20;61.53;100555.03;5134756;27;20043;-76
2022/02/09 11:28:26;;;;;;;30.42;19.20;;;;;;;11.20;61.95;100558.56;5131305;27;20055;-74
2022/02/09 11:31:09;;;;;;;25.98;16.30;;;;;;;11.18;61.99;100568.41;5118055;27;20043;-75
2022/02/09 11:34:06;;;;;;;28.30;15.50;;;;;;;11.16;62.18;100572.09;5135288;27;20043;-72
2022/02/09 11:36:38;;;;;;;27.42;17.10;;;;;;;11.07;62.42;100558.56;5131312;27;20095;-73
2022/02/09 11:39:14;;;;;;;31.60;20.90;;;;;;;10.88;63.23;100543.13;5130481;27;20050;-73
2022/02/09 11:41:55;;;;;;;25.83;16.60;;;;;;;10.92;63.04;100551.69;5131100;27;20103;-74
2022/02/09 11:44:51;;;;;;;24.58;16.27;;;;;;;11.07;62.58;100553.28;5131174;27;20069;-76
2022/02/09 11:47:43;;;;;;;31.40;23.05;;;;;;;11.03;62.81;100549.16;5133784;27;20050;-73
2022/02/09 11:50:56;;;;;;;28.40;22.05;;;;;;;10.96;63.11;100545.25;5142597;27;20076;-76
2022/02/09 12:11:08;;;;;;;27.05;18.35;;;;;;;11.17;63.22;100534.13;5039182;28;20270;-76
2022/02/09 12:13:51;;;;;;;35.08;25.17;;;;;;;11.21;63.21;100531.16;5030525;28;20038;-73
2022/02/09 12:16:42;;;;;;;31.10;18.05;;;;;;;11.29;63.07;100533.28;5038422;28;20100;-73
2022/02/09 12:19:25;;;;;;;30.95;22.27;;;;;;;11.31;62.87;100531.34;5036789;28;20056;-76
2022/02/09 12:21:56;;;;;;;25.90;19.63;;;;;;;11.29;63.00;100526.19;5043360;28;20041;-76
2022/02/09 12:24:29;;;;;;;25.90;17.45;;;;;;;11.35;63.00;100518.75;5040194;28;20025;-77
2022/02/09 12:27:00;;;;;;;23.50;15.35;;;;;;;11.39;62.79;100526.34;5040121;28;20045;-77
2022/02/09 12:29:35;;;;;;;26.23;16.38;;;;;;;11.38;62.86;100523.81;5037907;28;20068;-77
2022/02/09 12:32:04;;;;;;;;;;;;;;;11.65;62.22;100513.91;5040274;28;20104;-81
2022/02/09 12:34:34;;;;;;;29.80;18.38;;;;;;;11.41;62.68;100521.78;5039753;28;19909;-77
2022/02/09 12:37:12;;;;;;;32.65;22.60;;;;;;;11.26;63.34;100518.44;5044543;28;20056;-75
2022/02/09 12:39:50;;;;;;;26.25;19.98;;;;;;;11.31;63.29;100523.44;5076474;28;20053;-79
2022/02/09 12:42:18;;;;;;;23.08;16.05;;;;;;;11.34;63.15;100520.53;5077504;28;20053;-77
2022/02/09 12:44:59;;;;;;;22.58;14.27;;;;;;;11.35;63.22;100521.41;5076664;28;20036;-78
2022/02/09 12:47:33;;;;;;;24.30;15.20;;;;;;;11.39;63.03;100529.00;5081683;28;20114;-81
2022/02/09 12:50:07;;;;;;;27.35;20.70;;;;;;;11.41;63.11;100529.72;5111343;28;20055;-78
2022/02/09 12:52:36;;;;;;;23.30;16.85;;;;;;;11.47;62.84;100520.53;5098821;28;20788;-79
2022/02/09 12:55:12;;;;;;;24.38;16.08;;;;;;;11.48;62.87;100527.50;5110852;28;20121;-78
2022/02/09 12:57:41;;;;;;;23.85;18.15;;;;;;;11.45;62.84;100531.22;5110476;28;20050;-82
2022/02/09 13:00:21;;;;;;;24.55;18.67;;;;;;;11.50;62.55;100520.28;5103161;28;20073;-82
2022/02/09 13:02:50;;;;;;;23.33;17.30;;;;;;;11.53;62.37;100522.72;5122745;28;20051;-76
2022/02/09 13:05:21;;;;;;;22.73;16.25;;;;;;;11.35;62.89;100522.25;5127933;28;20067;-76
2022/02/09 13:07:52;;;;;;;25.75;16.98;;;;;;;11.31;62.98;100519.91;5120660;28;20062;-73
2022/02/09 13:10:33;;;;;;;25.13;17.38;;;;;;;11.25;63.39;100521.19;5108456;28;20068;-82
2022/02/09 13:13:06;;;;;;;27.77;20.30;;;;;;;11.13;63.79;100522.94;5105901;27;20835;-75
2022/02/09 13:15:42;;;;;;;27.85;19.27;;;;;;;11.03;64.27;100512.16;5116428;27;20732;-77
2022/02/09 13:18:42;;;;;;;28.90;20.95;;;;;;;11.00;64.42;100508.88;5118139;27;20594;-76
2022/02/09 13:25:07;;;;;;;32.63;24.13;;;;;;;11.06;64.14;100511.94;5114063;27;20103;-75
2022/02/09 14:10:17;;;;;;;13.82;10.60;;;;;;;11.62;62.22;100498.25;5082275;28;20132;-75
2022/02/09 14:11:06;;;;;;;13.00;9.82;;;;;;;11.66;61.94;100501.50;5084866;28;20043;-78
2022/02/09 14:13:51;;;;;;;14.40;9.32;;;;;;;11.66;61.66;100494.41;5086999;28;20476;-78
2022/02/09 14:16:52;;;;;;;13.95;10.02;;;;;;;11.62;61.80;100503.53;5086115;28;20044;-78
2022/02/09 14:23:44;;;;;;;14.77;11.48;;;;;;;11.59;61.83;100503.75;5074464;28;20059;-76
2022/02/09 14:47:31;;;;;;;23.25;13.80;;;;;;;11.36;62.52;100513.38;5096718;28;20046;-75
2022/02/09 14:53:00;;;;;;;16.67;11.90;;;;;;;11.24;62.93;100517.72;5066608;28;20569;-74
2022/02/09 14:55:45;;;;;;;14.68;9.20;;;;;;;11.21;62.91;100509.16;5075234;28;20040;-80
2022/02/09 14:58:16;;;;;;;14.40;10.18;;;;;;;11.14;63.07;100508.75;5077336;28;20033;-79
2022/02/09 15:00:57;;;;;;;12.38;9.55;;;;;;;11.03;63.53;100511.31;5072081;28;20052;-77
2022/02/09 15:09:06;;;;;;;17.50;10.23;;;;;;;11.02;63.36;100514.88;4988063;28;20057;-82
2022/02/09 15:11:37;;;;;;;17.48;10.98;;;;;;;11.00;63.25;100514.16;4958041;28;20046;-74
2022/02/09 15:14:18;;;;;;;17.13;11.18;;;;;;;10.98;63.28;100506.31;4954443;28;20055;-77
2022/02/09 15:16:58;;;;;;;16.85;10.85;;;;;;;10.97;63.39;100511.75;4978389;28;20070;-80
2022/02/09 15:19:38;;;;;;;17.33;11.88;;;;;;;10.97;63.20;100507.31;4974262;28;20424;-78
2022/02/09 15:22:07;;;;;;;21.10;14.02;;;;;;;10.97;63.01;100506.47;4967296;28;20057;-74
2022/02/09 15:24:42;;;;;;;19.17;10.98;;;;;;;11.00;63.05;100514.16;4979104;28;20042;-74
2022/02/09 15:27:12;;;;;;;14.15;10.18;;;;;;;11.02;62.77;100525.47;4973411;28;20061;-75
2022/02/09 15:32:27;;;;;;;15.30;10.55;;;;;;;11.03;62.64;100520.06;5433267;22;20060;-71
2022/02/09 15:34:58;;;;;;;17.92;11.15;;;;;;;11.05;62.58;100527.91;5058448;28;20045;-73
2022/02/09 15:37:36;;;;;;;20.42;12.20;;;;;;;11.02;62.58;100521.03;5060431;28;20048;-81
2022/02/09 15:40:13;;;;;;;14.30;9.48;;;;;;;11.03;62.13;100516.59;5053791;28;20044;-75
2022/02/09 16:10:25;;;;;;;20.38;12.55;;;;;;;10.90;60.35;100509.53;5016108;28;20109;-77
2022/02/09 16:24:01;;;;;;;22.33;13.33;;;;;;;10.92;59.88;100498.00;4922143;29;20142;-75
2022/02/09 16:48:42;;;;;;;34.75;15.52;;;;;;;10.95;59.87;100492.47;4924819;29;20745;-72
2022/02/09 16:51:16;;;;;;;28.70;16.70;;;;;;;10.95;59.87;100493.34;4928508;28;20074;-71
2022/02/09 16:53:56;;;;;;;24.88;13.88;;;;;;;10.95;59.81;100492.47;4930629;29;20380;-72
2022/02/09 16:56:43;;;;;;;25.98;15.82;;;;;;;10.93;60.03;100492.63;4928832;29;20138;-79
2022/02/09 17:21:26;;;;;;;20.58;12.55;;;;;;;10.82;59.52;100487.22;4898607;29;20100;-76
2022/02/09 17:23:57;;;;;;;26.92;14.98;;;;;;;10.76;59.67;100485.84;4892598;29;20044;-76
2022/02/09 17:26:26;;;;;;;26.65;16.10;;;;;;;10.76;59.51;100485.03;4919410;29;20056;-76
2022/02/09 17:28:59;;;;;;;23.85;14.02;;;;;;;10.76;59.42;100485.84;4927470;28;20078;-76
2022/02/09 17:31:33;;;;;;;20.65;12.88;;;;;;;10.77;59.35;100484.91;4933572;28;20054;-74
2022/02/09 17:34:40;;;;;;;19.83;11.27;;;;;;;10.77;59.16;100471.72;4914563;29;20661;-77
2022/02/09 17:37:15;;;;;;;24.42;13.98;;;;;;;10.78;59.15;100475.19;4937016;29;20110;-74
2022/02/09 17:53:28;;;;;;;24.25;12.40;;;;;;;10.77;58.85;100482.28;4939649;29;20050;-77
2022/02/09 17:56:00;;;;;;;29.42;13.52;;;;;;;10.79;58.81;100485.66;4946903;29;20295;-79
2022/02/09 17:58:33;;;;;;;17.13;11.05;;;;;;;10.81;58.82;100481.09;4972945;28;20046;-80
2022/02/09 18:01:02;;;;;;;21.90;12.68;;;;;;;10.81;58.70;100478.47;4974220;28;20089;-76
2022/02/09 18:03:30;;;;;;;27.85;12.57;;;;;;;10.83;58.55;100473.91;4989721;28;20097;-78
2022/02/09 18:06:09;;;;;;;25.55;15.25;;;;;;;10.77;58.64;100477.00;4986731;28;20046;-78
2022/02/09 18:08:48;;;;;;;20.92;11.80;;;;;;;10.80;58.60;100476.75;4991509;28;20057;-76
2022/02/09 18:11:27;;;;;;;17.67;11.23;;;;;;;10.79;58.59;100485.66;4987519;28;20117;-81
2022/02/09 18:30:32;;;;;;;16.60;11.05;;;;;;;10.79;58.08;100483.00;5044011;28;20189;-78
2022/02/09 18:33:14;;;;;;;23.10;12.40;;;;;;;10.74;57.82;100469.25;5046028;28;20052;-73
2022/02/09 18:44:04;;;;;;;12.07;6.90;;;;;;;10.78;57.36;100473.38;5041599;28;20048;-77
2022/02/09 18:46:52;;;;;;;15.13;9.38;;;;;;;10.79;57.13;100474.25;5045073;28;20079;-79
2022/02/09 19:03:00;;;;;;;18.63;9.13;;;;;;;10.85;56.01;100476.44;5027753;28;20071;-76
2022/02/09 19:05:33;;;;;;;15.88;8.88;;;;;;;10.84;55.73;100478.25;5031576;28;20042;-75
2022/02/09 19:08:18;;;;;;;17.02;7.88;;;;;;;10.83;55.57;100473.91;5031489;28;20132;-77
2022/02/09 19:19:27;;;;;;;16.67;7.97;;;;;;;10.83;55.25;100479.19;5025953;28;20128;-74
2022/02/09 19:28:33;;;;;;;15.82;7.53;;;;;;;10.86;55.28;100489.56;5032427;28;20060;-75
2022/02/09 19:30:42;;;;;;;16.20;8.18;;;;;;;10.86;55.35;100494.84;5034765;28;20090;-76
2022/02/09 19:33:29;;;;;;;11.45;6.97;;;;;;;10.80;55.04;100494.41;5036753;28;20057;-74
2022/02/09 19:47:22;;;;;;;17.45;10.88;;;;;;;10.75;55.11;100499.16;4980074;28;20150;-75
2022/02/09 19:50:09;;;;;;;19.08;8.68;;;;;;;10.75;55.18;100496.53;4981302;28;20077;-74
2022/02/09 19:53:08;;;;;;;14.57;8.52;;;;;;;10.73;55.07;100493.97;4975953;28;20050;-75
2022/02/09 19:55:38;;;;;;;15.80;8.15;;;;;;;10.72;55.39;100505.53;4981279;28;20261;-74
2022/02/09 19:58:06;;;;;;;16.52;8.90;;;;;;;10.68;55.57;100501.41;4977760;28;20561;-73
2022/02/09 20:00:36;;;;;;;13.20;8.15;;;;;;;10.69;55.65;100505.72;4929959;28;20126;-74
2022/02/09 20:03:05;;;;;;;12.40;8.65;;;;;;;10.67;55.92;100510.28;4976475;28;20065;-73
2022/02/09 20:05:34;;;;;;;11.93;7.68;;;;;;;10.59;56.45;100504.66;4976686;28;20078;-76
2022/02/09 20:08:06;;;;;;;19.75;10.07;;;;;;;10.57;56.79;100503.91;4977182;28;20112;-76
2022/02/09 20:10:34;;;;;;;11.57;6.78;;;;;;;10.52;56.83;100509.53;4976310;28;20475;-75
2022/02/09 20:13:01;;;;;;;15.30;8.98;;;;;;;10.48;57.00;100511.53;4975249;28;20046;-75
2022/02/09 20:15:32;;;;;;;12.68;7.32;;;;;;;10.50;57.25;100498.22;4976011;28;20865;-73
2022/02/09 20:17:59;;;;;;;12.27;6.93;;;;;;;10.42;57.50;100508.47;4999661;28;20427;-74
2022/02/09 20:20:29;;;;;;;12.15;7.20;;;;;;;10.42;57.44;100500.53;5038295;28;20802;-73
2022/02/09 20:22:58;;;;;;;19.10;9.95;;;;;;;10.35;57.69;100505.38;5037818;28;20041;-75
2022/02/09 20:25:28;;;;;;;11.65;6.18;;;;;;;10.41;57.53;100509.44;5037175;28;20044;-76
2022/02/09 20:27:58;;;;;;;14.20;8.98;;;;;;;10.39;57.66;100513.94;5037400;28;20098;-74
2022/02/09 20:30:33;;;;;;;15.50;10.85;;;;;;;10.30;57.79;100512.75;5037098;28;20076;-74
2022/02/09 20:33:04;;;;;;;14.88;9.50;;;;;;;10.35;57.64;100518.56;5033808;28;20604;-75
2022/02/09 20:35:31;;;;;;;16.83;11.32;;;;;;;10.35;57.68;100513.28;5036413;28;20099;-73
2022/02/09 20:37:58;;;;;;;13.55;8.95;;;;;;;10.31;57.86;100515.31;5035548;28;20114;-73
2022/02/09 20:40:34;;;;;;;13.65;6.75;;;;;;;10.37;57.78;100513.19;5031196;28;20629;-72
2022/02/09 20:43:03;;;;;;;13.20;8.50;;;;;;;10.40;57.50;100516.47;5031027;28;20504;-74
2022/02/09 20:45:35;;;;;;;17.50;9.40;;;;;;;10.37;57.69;100508.78;5028178;28;20130;-73
2022/02/09 20:48:06;;;;;;;15.65;8.18;;;;;;;10.41;57.59;100515.53;5023973;28;20044;-73
2022/02/09 20:50:35;;;;;;;15.30;9.93;;;;;;;10.39;57.42;100517.44;5024510;28;20075;-73
2022/02/09 20:53:02;;;;;;;13.18;8.23;;;;;;;10.34;57.28;100516.91;5036644;28;20073;-74